sensor_id;sensor_type;location;lat;lon;timestamp;P1;durP1;ratioP1;P2;durP2;ratioP2
78664;SDS011;67981;51.022;-2.870;2023-04-29T00:00:36;5.95;;;3.85;;
78664;SDS011;67981;51.022;-2.870;2023-04-29T00:03:01;7.83;;;3.93;;
78664;SDS011;67981;51.022;-2.870;2023-04-29T00:05:27;13.45;;;5.32;;
78664;SDS011;67981;51.022;-2.870;2023-04-29T00:07:52;6.05;;;3.90;;
78664;SDS011;67981;51.022;-2.870;2023-04-29T00:10:17;10.18;;;4.25;;
78664;SDS011;67981;51.022;-2.870;2023-04-29T00:12:43;9.40;;;4.87;;
78664;SDS011;67981;51.022;-2.870;2023-04-29T00:15:08;8.88;;;4.68;;
78664;SDS011;67981;51.022;-2.870;2023-04-29T00:17:34;8.73;;;4.72;;
78664;SDS011;67981;51.022;-2.870;2023-04-29T00:20:00;8.80;;;4.18;;
78664;SDS011;67981;51.022;-2.870;2023-04-29T00:22:26;13.73;;;5.43;;
78664;SDS011;67981;51.022;-2.870;2023-04-29T00:24:52;8.35;;;4.30;;
78664;SDS011;67981;51.022;-2.870;2023-04-29T00:27:17;9.82;;;3.90;;
78664;SDS011;67981;51.022;-2.870;2023-04-29T00:29:43;14.32;;;5.57;;
78664;SDS011;67981;51.022;-2.870;2023-04-29T00:32:08;9.80;;;4.00;;
78664;SDS011;67981;51.022;-2.870;2023-04-29T00:34:33;7.35;;;4.13;;
78664;SDS011;67981;51.022;-2.870;2023-04-29T00:36:59;10.35;;;4.28;;
78664;SDS011;67981;51.022;-2.870;2023-04-29T00:39:24;8.80;;;4.57;;
78664;SDS011;67981;51.022;-2.870;2023-04-29T00:41:50;10.60;;;4.68;;
78664;SDS011;67981;51.022;-2.870;2023-04-29T00:44:15;7.25;;;4.10;;
78664;SDS011;67981;51.022;-2.870;2023-04-29T00:46:41;11.25;;;4.22;;
78664;SDS011;67981;51.022;-2.870;2023-04-29T00:49:07;15.32;;;4.30;;
78664;SDS011;67981;51.022;-2.870;2023-04-29T00:51:33;6.70;;;3.22;;
78664;SDS011;67981;51.022;-2.870;2023-04-29T00:53:59;29.42;;;5.63;;
78664;SDS011;67981;51.022;-2.870;2023-04-29T00:56:24;13.80;;;4.68;;
78664;SDS011;67981;51.022;-2.870;2023-04-29T00:58:50;21.67;;;4.43;;
78664;SDS011;67981;51.022;-2.870;2023-04-29T01:01:16;20.08;;;4.30;;
78664;SDS011;67981;51.022;-2.870;2023-04-29T01:03:45;17.10;;;3.58;;
78664;SDS011;67981;51.022;-2.870;2023-04-29T01:11:55;39.80;;;5.88;;
78664;SDS011;67981;51.022;-2.870;2023-04-29T01:14:35;17.40;;;4.43;;
78664;SDS011;67981;51.022;-2.870;2023-04-29T01:17:09;21.00;;;4.68;;
78664;SDS011;67981;51.022;-2.870;2023-04-29T01:19:49;22.92;;;5.15;;
78664;SDS011;67981;51.022;-2.870;2023-04-29T01:22:19;7.47;;;3.65;;
78664;SDS011;67981;51.022;-2.870;2023-04-29T01:24:46;21.58;;;4.45;;
78664;SDS011;67981;51.022;-2.870;2023-04-29T01:37:32;9.13;;;3.40;;
78664;SDS011;67981;51.022;-2.870;2023-04-29T01:40:18;8.43;;;3.78;;
78664;SDS011;67981;51.022;-2.870;2023-04-29T01:45:24;20.42;;;4.80;;
78664;SDS011;67981;51.022;-2.870;2023-04-29T01:47:51;13.05;;;4.50;;
78664;SDS011;67981;51.022;-2.870;2023-04-29T01:50:20;7.63;;;3.28;;
78664;SDS011;67981;51.022;-2.870;2023-04-29T01:52:45;44.88;;;7.30;;
78664;SDS011;67981;51.022;-2.870;2023-04-29T01:55:11;39.28;;;6.32;;
78664;SDS011;67981;51.022;-2.870;2023-04-29T01:57:36;53.63;;;7.28;;
78664;SDS011;67981;51.022;-2.870;2023-04-29T02:00:01;20.42;;;5.45;;
78664;SDS011;67981;51.022;-2.870;2023-04-29T02:02:28;133.68;;;15.82;;
78664;SDS011;67981;51.022;-2.870;2023-04-29T02:04:54;20.90;;;4.88;;
78664;SDS011;67981;51.022;-2.870;2023-04-29T02:07:19;34.75;;;4.93;;
78664;SDS011;67981;51.022;-2.870;2023-04-29T02:09:45;29.67;;;4.90;;
78664;SDS011;67981;51.022;-2.870;2023-04-29T02:12:11;32.50;;;6.32;;
78664;SDS011;67981;51.022;-2.870;2023-04-29T02:14:36;46.08;;;6.90;;
78664;SDS011;67981;51.022;-2.870;2023-04-29T02:17:01;34.65;;;6.28;;
78664;SDS011;67981;51.022;-2.870;2023-04-29T02:19:27;8.20;;;3.30;;
78664;SDS011;67981;51.022;-2.870;2023-04-29T02:21:52;20.60;;;4.50;;
78664;SDS011;67981;51.022;-2.870;2023-04-29T02:24:18;39.33;;;5.23;;
78664;SDS011;67981;51.022;-2.870;2023-04-29T02:26:43;27.38;;;5.53;;
78664;SDS011;67981;51.022;-2.870;2023-04-29T02:29:08;24.43;;;5.73;;
78664;SDS011;67981;51.022;-2.870;2023-04-29T02:31:34;34.00;;;6.60;;
78664;SDS011;67981;51.022;-2.870;2023-04-29T02:33:59;9.00;;;3.97;;
78664;SDS011;67981;51.022;-2.870;2023-04-29T02:36:25;11.90;;;4.35;;
78664;SDS011;67981;51.022;-2.870;2023-04-29T02:38:50;12.02;;;3.97;;
78664;SDS011;67981;51.022;-2.870;2023-04-29T02:41:19;11.55;;;4.88;;
78664;SDS011;67981;51.022;-2.870;2023-04-29T02:43:44;12.93;;;5.10;;
78664;SDS011;67981;51.022;-2.870;2023-04-29T02:46:10;16.85;;;4.93;;
78664;SDS011;67981;51.022;-2.870;2023-04-29T02:48:35;18.80;;;5.50;;
78664;SDS011;67981;51.022;-2.870;2023-04-29T02:51:01;10.30;;;5.10;;
78664;SDS011;67981;51.022;-2.870;2023-04-29T02:53:27;11.90;;;4.95;;
78664;SDS011;67981;51.022;-2.870;2023-04-29T02:55:52;15.37;;;5.57;;
78664;SDS011;67981;51.022;-2.870;2023-04-29T02:58:17;9.73;;;5.00;;
78664;SDS011;67981;51.022;-2.870;2023-04-29T03:00:43;15.95;;;5.35;;
78664;SDS011;67981;51.022;-2.870;2023-04-29T03:03:08;12.55;;;4.68;;
78664;SDS011;67981;51.022;-2.870;2023-04-29T03:05:34;10.38;;;4.97;;
78664;SDS011;67981;51.022;-2.870;2023-04-29T03:08:00;15.57;;;5.60;;
78664;SDS011;67981;51.022;-2.870;2023-04-29T03:10:25;18.98;;;5.03;;
78664;SDS011;67981;51.022;-2.870;2023-04-29T03:12:51;16.85;;;5.55;;
78664;SDS011;67981;51.022;-2.870;2023-04-29T03:15:16;20.03;;;4.77;;
78664;SDS011;67981;51.022;-2.870;2023-04-29T03:17:42;23.27;;;5.07;;
78664;SDS011;67981;51.022;-2.870;2023-04-29T03:20:10;15.95;;;5.20;;
78664;SDS011;67981;51.022;-2.870;2023-04-29T03:22:36;13.93;;;5.00;;
78664;SDS011;67981;51.022;-2.870;2023-04-29T03:25:01;17.88;;;5.28;;
78664;SDS011;67981;51.022;-2.870;2023-04-29T03:27:27;19.20;;;5.07;;
78664;SDS011;67981;51.022;-2.870;2023-04-29T03:29:52;21.48;;;6.78;;
78664;SDS011;67981;51.022;-2.870;2023-04-29T03:32:18;20.52;;;5.90;;
78664;SDS011;67981;51.022;-2.870;2023-04-29T03:34:43;22.65;;;6.20;;
78664;SDS011;67981;51.022;-2.870;2023-04-29T03:37:09;18.47;;;5.07;;
78664;SDS011;67981;51.022;-2.870;2023-04-29T03:39:34;18.40;;;7.15;;
78664;SDS011;67981;51.022;-2.870;2023-04-29T03:41:59;20.33;;;7.40;;
78664;SDS011;67981;51.022;-2.870;2023-04-29T03:44:25;26.95;;;7.55;;
78664;SDS011;67981;51.022;-2.870;2023-04-29T03:46:51;28.25;;;7.88;;
78664;SDS011;67981;51.022;-2.870;2023-04-29T03:49:16;26.48;;;8.95;;
78664;SDS011;67981;51.022;-2.870;2023-04-29T03:51:42;24.17;;;8.52;;
78664;SDS011;67981;51.022;-2.870;2023-04-29T03:54:09;20.42;;;9.02;;
78664;SDS011;67981;51.022;-2.870;2023-04-29T03:56:35;14.60;;;5.68;;
78664;SDS011;67981;51.022;-2.870;2023-04-29T03:59:01;15.63;;;5.75;;
78664;SDS011;67981;51.022;-2.870;2023-04-29T04:01:26;19.75;;;6.13;;
78664;SDS011;67981;51.022;-2.870;2023-04-29T04:03:51;16.98;;;5.82;;
78664;SDS011;67981;51.022;-2.870;2023-04-29T04:06:17;23.20;;;5.70;;
78664;SDS011;67981;51.022;-2.870;2023-04-29T04:08:42;22.67;;;4.70;;
78664;SDS011;67981;51.022;-2.870;2023-04-29T04:11:07;19.52;;;6.50;;
78664;SDS011;67981;51.022;-2.870;2023-04-29T04:13:33;19.90;;;5.10;;
78664;SDS011;67981;51.022;-2.870;2023-04-29T04:15:59;26.77;;;6.10;;
78664;SDS011;67981;51.022;-2.870;2023-04-29T04:18:24;17.75;;;4.97;;
78664;SDS011;67981;51.022;-2.870;2023-04-29T04:20:50;9.82;;;5.28;;
78664;SDS011;67981;51.022;-2.870;2023-04-29T04:23:15;22.95;;;5.45;;
78664;SDS011;67981;51.022;-2.870;2023-04-29T04:25:47;18.92;;;5.15;;
78664;SDS011;67981;51.022;-2.870;2023-04-29T04:28:13;25.50;;;7.00;;
78664;SDS011;67981;51.022;-2.870;2023-04-29T04:30:38;18.50;;;6.15;;
78664;SDS011;67981;51.022;-2.870;2023-04-29T04:33:04;29.83;;;6.43;;
78664;SDS011;67981;51.022;-2.870;2023-04-29T04:35:30;11.27;;;5.70;;
78664;SDS011;67981;51.022;-2.870;2023-04-29T04:37:55;21.42;;;6.57;;
78664;SDS011;67981;51.022;-2.870;2023-04-29T04:40:21;12.45;;;5.18;;
78664;SDS011;67981;51.022;-2.870;2023-04-29T04:42:46;22.95;;;6.43;;
78664;SDS011;67981;51.022;-2.870;2023-04-29T04:45:12;24.70;;;6.57;;
78664;SDS011;67981;51.022;-2.870;2023-04-29T04:47:39;29.88;;;6.25;;
78664;SDS011;67981;51.022;-2.870;2023-04-29T04:50:05;37.28;;;7.82;;
78664;SDS011;67981;51.022;-2.870;2023-04-29T04:52:32;39.42;;;6.18;;
78664;SDS011;67981;51.022;-2.870;2023-04-29T04:54:57;45.03;;;8.23;;
78664;SDS011;67981;51.022;-2.870;2023-04-29T04:57:23;40.97;;;7.82;;
78664;SDS011;67981;51.022;-2.870;2023-04-29T04:59:48;37.90;;;6.53;;
78664;SDS011;67981;51.022;-2.870;2023-04-29T05:02:13;20.98;;;6.35;;
78664;SDS011;67981;51.022;-2.870;2023-04-29T05:04:39;14.70;;;5.50;;
78664;SDS011;67981;51.022;-2.870;2023-04-29T05:07:04;41.87;;;7.97;;
78664;SDS011;67981;51.022;-2.870;2023-04-29T05:09:30;35.42;;;7.78;;
78664;SDS011;67981;51.022;-2.870;2023-04-29T05:11:55;37.92;;;5.80;;
78664;SDS011;67981;51.022;-2.870;2023-04-29T05:14:23;16.75;;;5.32;;
78664;SDS011;67981;51.022;-2.870;2023-04-29T05:16:48;22.73;;;5.28;;
78664;SDS011;67981;51.022;-2.870;2023-04-29T05:19:15;17.05;;;5.03;;
78664;SDS011;67981;51.022;-2.870;2023-04-29T05:21:40;22.33;;;5.15;;
78664;SDS011;67981;51.022;-2.870;2023-04-29T05:24:06;42.90;;;6.30;;
78664;SDS011;67981;51.022;-2.870;2023-04-29T05:26:31;20.23;;;5.07;;
78664;SDS011;67981;51.022;-2.870;2023-04-29T05:28:56;18.27;;;5.03;;
78664;SDS011;67981;51.022;-2.870;2023-04-29T05:31:22;19.35;;;5.25;;
78664;SDS011;67981;51.022;-2.870;2023-04-29T05:33:47;22.55;;;6.25;;
78664;SDS011;67981;51.022;-2.870;2023-04-29T05:36:13;29.65;;;6.75;;
78664;SDS011;67981;51.022;-2.870;2023-04-29T05:38:38;33.92;;;6.57;;
78664;SDS011;67981;51.022;-2.870;2023-04-29T05:41:03;24.27;;;5.28;;
78664;SDS011;67981;51.022;-2.870;2023-04-29T05:43:29;30.83;;;6.38;;
78664;SDS011;67981;51.022;-2.870;2023-04-29T05:45:54;31.75;;;7.18;;
78664;SDS011;67981;51.022;-2.870;2023-04-29T05:48:20;17.98;;;5.63;;
78664;SDS011;67981;51.022;-2.870;2023-04-29T05:50:45;36.42;;;12.20;;
78664;SDS011;67981;51.022;-2.870;2023-04-29T05:53:12;43.40;;;8.65;;
78664;SDS011;67981;51.022;-2.870;2023-04-29T05:55:38;44.95;;;7.20;;
78664;SDS011;67981;51.022;-2.870;2023-04-29T05:58:03;28.42;;;6.43;;
78664;SDS011;67981;51.022;-2.870;2023-04-29T06:00:29;45.22;;;8.32;;
78664;SDS011;67981;51.022;-2.870;2023-04-29T06:02:55;26.98;;;5.68;;
78664;SDS011;67981;51.022;-2.870;2023-04-29T06:05:21;13.55;;;5.70;;
78664;SDS011;67981;51.022;-2.870;2023-04-29T06:07:46;23.38;;;6.72;;
78664;SDS011;67981;51.022;-2.870;2023-04-29T06:10:12;13.98;;;5.35;;
78664;SDS011;67981;51.022;-2.870;2023-04-29T06:12:37;34.45;;;7.18;;
78664;SDS011;67981;51.022;-2.870;2023-04-29T06:15:03;21.73;;;5.40;;
78664;SDS011;67981;51.022;-2.870;2023-04-29T06:17:28;19.45;;;5.15;;
78664;SDS011;67981;51.022;-2.870;2023-04-29T06:19:54;17.77;;;5.43;;
78664;SDS011;67981;51.022;-2.870;2023-04-29T06:22:20;39.85;;;6.80;;
78664;SDS011;67981;51.022;-2.870;2023-04-29T06:24:45;13.57;;;5.95;;
78664;SDS011;67981;51.022;-2.870;2023-04-29T06:27:13;15.20;;;5.72;;
78664;SDS011;67981;51.022;-2.870;2023-04-29T06:29:39;24.08;;;5.65;;
78664;SDS011;67981;51.022;-2.870;2023-04-29T06:32:05;20.75;;;5.07;;
78664;SDS011;67981;51.022;-2.870;2023-04-29T06:34:30;18.90;;;5.90;;
78664;SDS011;67981;51.022;-2.870;2023-04-29T06:36:56;26.80;;;6.70;;
78664;SDS011;67981;51.022;-2.870;2023-04-29T06:39:21;30.35;;;7.07;;
78664;SDS011;67981;51.022;-2.870;2023-04-29T06:41:46;17.03;;;5.27;;
78664;SDS011;67981;51.022;-2.870;2023-04-29T06:44:12;17.07;;;5.63;;
78664;SDS011;67981;51.022;-2.870;2023-04-29T06:46:37;15.32;;;4.53;;
78664;SDS011;67981;51.022;-2.870;2023-04-29T06:49:03;17.13;;;4.97;;
78664;SDS011;67981;51.022;-2.870;2023-04-29T06:51:28;9.75;;;4.45;;
78664;SDS011;67981;51.022;-2.870;2023-04-29T06:53:54;24.77;;;6.18;;
78664;SDS011;67981;51.022;-2.870;2023-04-29T06:56:19;10.85;;;3.78;;
78664;SDS011;67981;51.022;-2.870;2023-04-29T06:58:45;9.48;;;3.83;;
78664;SDS011;67981;51.022;-2.870;2023-04-29T07:01:10;7.15;;;3.58;;
78664;SDS011;67981;51.022;-2.870;2023-04-29T07:03:35;8.52;;;3.50;;
78664;SDS011;67981;51.022;-2.870;2023-04-29T07:06:01;8.20;;;4.43;;
78664;SDS011;67981;51.022;-2.870;2023-04-29T07:08:26;7.15;;;3.10;;
78664;SDS011;67981;51.022;-2.870;2023-04-29T07:10:56;9.02;;;4.07;;
78664;SDS011;67981;51.022;-2.870;2023-04-29T07:13:21;10.63;;;9.10;;
78664;SDS011;67981;51.022;-2.870;2023-04-29T07:15:47;10.52;;;8.90;;
78664;SDS011;67981;51.022;-2.870;2023-04-29T07:18:13;15.50;;;8.68;;
78664;SDS011;67981;51.022;-2.870;2023-04-29T07:20:38;17.63;;;10.18;;
78664;SDS011;67981;51.022;-2.870;2023-04-29T07:23:03;5.37;;;3.07;;
78664;SDS011;67981;51.022;-2.870;2023-04-29T07:25:29;9.00;;;5.30;;
78664;SDS011;67981;51.022;-2.870;2023-04-29T07:27:55;18.75;;;14.23;;
78664;SDS011;67981;51.022;-2.870;2023-04-29T07:30:21;69.55;;;44.47;;
78664;SDS011;67981;51.022;-2.870;2023-04-29T07:32:47;9.88;;;4.05;;
78664;SDS011;67981;51.022;-2.870;2023-04-29T07:35:12;6.80;;;2.75;;
78664;SDS011;67981;51.022;-2.870;2023-04-29T07:37:38;8.57;;;3.45;;
78664;SDS011;67981;51.022;-2.870;2023-04-29T07:40:03;5.90;;;2.50;;
78664;SDS011;67981;51.022;-2.870;2023-04-29T07:42:29;7.20;;;3.63;;
78664;SDS011;67981;51.022;-2.870;2023-04-29T07:44:55;47.78;;;31.77;;
78664;SDS011;67981;51.022;-2.870;2023-04-29T07:47:20;7.95;;;5.28;;
78664;SDS011;67981;51.022;-2.870;2023-04-29T07:49:46;11.65;;;7.88;;
78664;SDS011;67981;51.022;-2.870;2023-04-29T07:52:11;10.50;;;6.00;;
78664;SDS011;67981;51.022;-2.870;2023-04-29T07:54:36;7.17;;;3.43;;
78664;SDS011;67981;51.022;-2.870;2023-04-29T07:57:02;6.22;;;3.55;;
78664;SDS011;67981;51.022;-2.870;2023-04-29T07:59:29;6.40;;;2.92;;
78664;SDS011;67981;51.022;-2.870;2023-04-29T08:01:55;6.75;;;3.42;;
78664;SDS011;67981;51.022;-2.870;2023-04-29T08:04:20;5.80;;;3.20;;
78664;SDS011;67981;51.022;-2.870;2023-04-29T08:06:45;9.02;;;3.83;;
78664;SDS011;67981;51.022;-2.870;2023-04-29T08:09:11;7.38;;;3.40;;
78664;SDS011;67981;51.022;-2.870;2023-04-29T08:11:37;12.65;;;9.27;;
78664;SDS011;67981;51.022;-2.870;2023-04-29T08:14:03;12.98;;;9.02;;
78664;SDS011;67981;51.022;-2.870;2023-04-29T08:16:29;19.58;;;16.73;;
78664;SDS011;67981;51.022;-2.870;2023-04-29T08:18:55;8.65;;;4.03;;
78664;SDS011;67981;51.022;-2.870;2023-04-29T08:21:21;9.57;;;4.45;;
78664;SDS011;67981;51.022;-2.870;2023-04-29T08:23:47;8.10;;;4.93;;
78664;SDS011;67981;51.022;-2.870;2023-04-29T08:26:12;10.68;;;5.10;;
78664;SDS011;67981;51.022;-2.870;2023-04-29T08:28:38;8.32;;;4.45;;
78664;SDS011;67981;51.022;-2.870;2023-04-29T08:31:04;7.95;;;4.97;;
78664;SDS011;67981;51.022;-2.870;2023-04-29T08:33:32;36.83;;;33.05;;
78664;SDS011;67981;51.022;-2.870;2023-04-29T08:35:58;17.33;;;15.02;;
78664;SDS011;67981;51.022;-2.870;2023-04-29T08:38:25;17.42;;;15.55;;
78664;SDS011;67981;51.022;-2.870;2023-04-29T08:40:51;12.98;;;6.32;;
78664;SDS011;67981;51.022;-2.870;2023-04-29T08:43:17;50.28;;;26.40;;
78664;SDS011;67981;51.022;-2.870;2023-04-29T08:45:44;14.55;;;7.32;;
78664;SDS011;67981;51.022;-2.870;2023-04-29T08:48:11;13.07;;;8.07;;
78664;SDS011;67981;51.022;-2.870;2023-04-29T08:50:38;15.63;;;11.00;;
78664;SDS011;67981;51.022;-2.870;2023-04-29T08:53:05;11.27;;;6.38;;
78664;SDS011;67981;51.022;-2.870;2023-04-29T08:55:35;10.30;;;5.07;;
78664;SDS011;67981;51.022;-2.870;2023-04-29T08:58:05;16.48;;;13.88;;
78664;SDS011;67981;51.022;-2.870;2023-04-29T09:00:31;39.25;;;35.53;;
78664;SDS011;67981;51.022;-2.870;2023-04-29T09:02:58;19.85;;;13.80;;
78664;SDS011;67981;51.022;-2.870;2023-04-29T09:05:28;45.10;;;40.17;;
78664;SDS011;67981;51.022;-2.870;2023-04-29T09:07:57;93.72;;;59.60;;
78664;SDS011;67981;51.022;-2.870;2023-04-29T09:10:24;43.05;;;28.20;;
78664;SDS011;67981;51.022;-2.870;2023-04-29T09:12:50;49.35;;;29.83;;
78664;SDS011;67981;51.022;-2.870;2023-04-29T09:15:15;21.55;;;10.85;;
78664;SDS011;67981;51.022;-2.870;2023-04-29T09:17:42;23.75;;;13.30;;
78664;SDS011;67981;51.022;-2.870;2023-04-29T09:22:56;34.30;;;23.88;;
78664;SDS011;67981;51.022;-2.870;2023-04-29T09:25:22;22.95;;;13.43;;
78664;SDS011;67981;51.022;-2.870;2023-04-29T09:27:47;22.40;;;11.15;;
78664;SDS011;67981;51.022;-2.870;2023-04-29T09:30:13;19.95;;;11.65;;
78664;SDS011;67981;51.022;-2.870;2023-04-29T09:32:40;21.23;;;10.20;;
78664;SDS011;67981;51.022;-2.870;2023-04-29T09:35:22;21.23;;;10.73;;
78664;SDS011;67981;51.022;-2.870;2023-04-29T09:37:48;20.88;;;10.27;;
78664;SDS011;67981;51.022;-2.870;2023-04-29T09:40:26;27.10;;;14.82;;
78664;SDS011;67981;51.022;-2.870;2023-04-29T09:42:54;27.23;;;15.18;;
78664;SDS011;67981;51.022;-2.870;2023-04-29T09:45:39;23.10;;;11.60;;
78664;SDS011;67981;51.022;-2.870;2023-04-29T09:48:06;28.17;;;14.80;;
78664;SDS011;67981;51.022;-2.870;2023-04-29T09:50:37;27.88;;;13.80;;
78664;SDS011;67981;51.022;-2.870;2023-04-29T09:53:04;25.50;;;13.52;;
78664;SDS011;67981;51.022;-2.870;2023-04-29T09:55:33;31.65;;;15.07;;
78664;SDS011;67981;51.022;-2.870;2023-04-29T09:58:28;27.42;;;15.43;;
78664;SDS011;67981;51.022;-2.870;2023-04-29T10:00:58;31.27;;;14.40;;
78664;SDS011;67981;51.022;-2.870;2023-04-29T10:03:28;25.80;;;12.65;;
78664;SDS011;67981;51.022;-2.870;2023-04-29T10:05:57;30.48;;;13.68;;
78664;SDS011;67981;51.022;-2.870;2023-04-29T10:08:23;31.65;;;14.02;;
78664;SDS011;67981;51.022;-2.870;2023-04-29T10:10:51;31.75;;;15.27;;
78664;SDS011;67981;51.022;-2.870;2023-04-29T10:13:22;31.45;;;16.52;;
78664;SDS011;67981;51.022;-2.870;2023-04-29T10:15:51;31.08;;;17.10;;
78664;SDS011;67981;51.022;-2.870;2023-04-29T10:18:43;30.77;;;18.40;;
78664;SDS011;67981;51.022;-2.870;2023-04-29T10:21:13;30.30;;;14.70;;
78664;SDS011;67981;51.022;-2.870;2023-04-29T10:23:40;26.77;;;14.15;;
78664;SDS011;67981;51.022;-2.870;2023-04-29T10:26:09;27.15;;;15.43;;
78664;SDS011;67981;51.022;-2.870;2023-04-29T10:28:39;30.40;;;16.08;;
78664;SDS011;67981;51.022;-2.870;2023-04-29T10:31:06;30.25;;;15.95;;
78664;SDS011;67981;51.022;-2.870;2023-04-29T10:33:32;26.55;;;15.23;;
78664;SDS011;67981;51.022;-2.870;2023-04-29T10:35:59;31.58;;;15.32;;
78664;SDS011;67981;51.022;-2.870;2023-04-29T10:38:31;30.52;;;15.65;;
78664;SDS011;67981;51.022;-2.870;2023-04-29T10:40:57;35.70;;;16.25;;
78664;SDS011;67981;51.022;-2.870;2023-04-29T10:43:27;30.00;;;16.42;;
78664;SDS011;67981;51.022;-2.870;2023-04-29T10:48:42;31.75;;;15.10;;
78664;SDS011;67981;51.022;-2.870;2023-04-29T10:51:08;47.65;;;26.20;;
78664;SDS011;67981;51.022;-2.870;2023-04-29T10:53:33;68.87;;;34.30;;
78664;SDS011;67981;51.022;-2.870;2023-04-29T10:56:08;113.55;;;51.95;;
78664;SDS011;67981;51.022;-2.870;2023-04-29T10:58:37;137.88;;;55.17;;
78664;SDS011;67981;51.022;-2.870;2023-04-29T11:01:05;111.60;;;72.68;;
78664;SDS011;67981;51.022;-2.870;2023-04-29T11:06:23;38.35;;;19.60;;
78664;SDS011;67981;51.022;-2.870;2023-04-29T11:09:03;45.05;;;25.90;;
78664;SDS011;67981;51.022;-2.870;2023-04-29T11:11:39;30.27;;;14.98;;
78664;SDS011;67981;51.022;-2.870;2023-04-29T11:14:14;30.35;;;17.30;;
78664;SDS011;67981;51.022;-2.870;2023-04-29T11:16:47;28.15;;;16.63;;
78664;SDS011;67981;51.022;-2.870;2023-04-29T11:19:14;32.25;;;15.75;;
78664;SDS011;67981;51.022;-2.870;2023-04-29T11:21:40;33.10;;;19.08;;
78664;SDS011;67981;51.022;-2.870;2023-04-29T11:24:06;34.78;;;17.45;;
78664;SDS011;67981;51.022;-2.870;2023-04-29T11:26:35;33.97;;;18.38;;
78664;SDS011;67981;51.022;-2.870;2023-04-29T11:29:01;33.80;;;18.60;;
78664;SDS011;67981;51.022;-2.870;2023-04-29T11:31:30;27.23;;;15.93;;
78664;SDS011;67981;51.022;-2.870;2023-04-29T11:33:56;33.25;;;19.65;;
78664;SDS011;67981;51.022;-2.870;2023-04-29T11:36:22;29.60;;;16.58;;
78664;SDS011;67981;51.022;-2.870;2023-04-29T11:38:47;25.20;;;14.98;;
78664;SDS011;67981;51.022;-2.870;2023-04-29T11:41:13;31.08;;;18.23;;
78664;SDS011;67981;51.022;-2.870;2023-04-29T11:43:39;29.50;;;17.38;;
78664;SDS011;67981;51.022;-2.870;2023-04-29T11:46:14;28.45;;;15.93;;
78664;SDS011;67981;51.022;-2.870;2023-04-29T11:48:46;25.48;;;15.02;;
78664;SDS011;67981;51.022;-2.870;2023-04-29T11:51:12;28.67;;;16.38;;
78664;SDS011;67981;51.022;-2.870;2023-04-29T11:53:39;32.78;;;17.40;;
78664;SDS011;67981;51.022;-2.870;2023-04-29T11:56:04;28.15;;;16.33;;
78664;SDS011;67981;51.022;-2.870;2023-04-29T11:58:30;32.80;;;17.80;;
78664;SDS011;67981;51.022;-2.870;2023-04-29T12:00:57;26.20;;;16.00;;
78664;SDS011;67981;51.022;-2.870;2023-04-29T12:03:22;27.75;;;16.00;;
78664;SDS011;67981;51.022;-2.870;2023-04-29T12:05:51;27.52;;;16.52;;
78664;SDS011;67981;51.022;-2.870;2023-04-29T12:08:21;26.35;;;15.50;;
78664;SDS011;67981;51.022;-2.870;2023-04-29T12:10:51;28.67;;;16.40;;
78664;SDS011;67981;51.022;-2.870;2023-04-29T12:13:18;27.58;;;15.73;;
78664;SDS011;67981;51.022;-2.870;2023-04-29T12:15:45;21.33;;;14.07;;
78664;SDS011;67981;51.022;-2.870;2023-04-29T12:18:12;24.35;;;14.88;;
78664;SDS011;67981;51.022;-2.870;2023-04-29T12:20:38;23.33;;;13.90;;
78664;SDS011;67981;51.022;-2.870;2023-04-29T12:23:11;22.15;;;14.63;;
78664;SDS011;67981;51.022;-2.870;2023-04-29T12:25:56;23.13;;;14.77;;
78664;SDS011;67981;51.022;-2.870;2023-04-29T12:28:23;21.92;;;13.88;;
78664;SDS011;67981;51.022;-2.870;2023-04-29T12:30:50;22.38;;;13.82;;
78664;SDS011;67981;51.022;-2.870;2023-04-29T12:33:21;25.38;;;14.48;;
78664;SDS011;67981;51.022;-2.870;2023-04-29T12:35:51;24.48;;;13.98;;
78664;SDS011;67981;51.022;-2.870;2023-04-29T12:38:30;20.90;;;12.70;;
78664;SDS011;67981;51.022;-2.870;2023-04-29T12:40:57;27.58;;;14.57;;
78664;SDS011;67981;51.022;-2.870;2023-04-29T12:43:30;23.10;;;14.15;;
78664;SDS011;67981;51.022;-2.870;2023-04-29T12:46:01;22.23;;;13.55;;
78664;SDS011;67981;51.022;-2.870;2023-04-29T12:48:31;26.05;;;15.63;;
78664;SDS011;67981;51.022;-2.870;2023-04-29T12:50:57;24.40;;;14.48;;
78664;SDS011;67981;51.022;-2.870;2023-04-29T12:53:26;24.10;;;14.82;;
78664;SDS011;67981;51.022;-2.870;2023-04-29T12:55:53;24.75;;;14.50;;
78664;SDS011;67981;51.022;-2.870;2023-04-29T12:58:18;24.67;;;15.52;;
78664;SDS011;67981;51.022;-2.870;2023-04-29T13:00:44;22.00;;;14.68;;
78664;SDS011;67981;51.022;-2.870;2023-04-29T13:03:09;27.45;;;15.38;;
78664;SDS011;67981;51.022;-2.870;2023-04-29T13:05:35;23.98;;;14.40;;
78664;SDS011;67981;51.022;-2.870;2023-04-29T13:08:00;24.15;;;15.02;;
78664;SDS011;67981;51.022;-2.870;2023-04-29T13:10:26;22.92;;;13.68;;
78664;SDS011;67981;51.022;-2.870;2023-04-29T13:12:55;23.95;;;15.32;;
78664;SDS011;67981;51.022;-2.870;2023-04-29T13:15:20;27.58;;;15.75;;
78664;SDS011;67981;51.022;-2.870;2023-04-29T13:17:46;27.10;;;14.63;;
78664;SDS011;67981;51.022;-2.870;2023-04-29T13:20:11;28.10;;;15.20;;
78664;SDS011;67981;51.022;-2.870;2023-04-29T13:22:37;25.35;;;15.43;;
78664;SDS011;67981;51.022;-2.870;2023-04-29T13:25:03;23.75;;;14.38;;
78664;SDS011;67981;51.022;-2.870;2023-04-29T13:27:29;26.98;;;16.70;;
78664;SDS011;67981;51.022;-2.870;2023-04-29T13:29:54;22.35;;;14.20;;
78664;SDS011;67981;51.022;-2.870;2023-04-29T13:32:20;23.15;;;13.18;;
78664;SDS011;67981;51.022;-2.870;2023-04-29T13:34:48;24.45;;;14.85;;
78664;SDS011;67981;51.022;-2.870;2023-04-29T13:37:14;22.00;;;13.63;;
78664;SDS011;67981;51.022;-2.870;2023-04-29T13:39:40;20.20;;;13.20;;
78664;SDS011;67981;51.022;-2.870;2023-04-29T13:42:06;24.92;;;15.27;;
78664;SDS011;67981;51.022;-2.870;2023-04-29T13:44:32;24.48;;;14.40;;
78664;SDS011;67981;51.022;-2.870;2023-04-29T13:46:58;20.77;;;13.10;;
78664;SDS011;67981;51.022;-2.870;2023-04-29T13:49:23;21.55;;;14.15;;
78664;SDS011;67981;51.022;-2.870;2023-04-29T13:51:49;21.10;;;12.60;;
78664;SDS011;67981;51.022;-2.870;2023-04-29T13:54:14;19.20;;;12.73;;
78664;SDS011;67981;51.022;-2.870;2023-04-29T13:56:40;20.15;;;13.45;;
78664;SDS011;67981;51.022;-2.870;2023-04-29T13:59:06;19.42;;;13.32;;
78664;SDS011;67981;51.022;-2.870;2023-04-29T14:01:35;20.85;;;12.65;;
78664;SDS011;67981;51.022;-2.870;2023-04-29T14:04:00;21.65;;;13.43;;
78664;SDS011;67981;51.022;-2.870;2023-04-29T14:06:25;21.25;;;13.00;;
78664;SDS011;67981;51.022;-2.870;2023-04-29T14:08:52;20.25;;;13.02;;
78664;SDS011;67981;51.022;-2.870;2023-04-29T14:11:17;20.73;;;11.65;;
78664;SDS011;67981;51.022;-2.870;2023-04-29T14:13:43;19.48;;;11.35;;
78664;SDS011;67981;51.022;-2.870;2023-04-29T14:16:08;21.17;;;12.40;;
78664;SDS011;67981;51.022;-2.870;2023-04-29T14:18:34;24.05;;;13.18;;
78664;SDS011;67981;51.022;-2.870;2023-04-29T14:20:59;18.42;;;12.13;;
78664;SDS011;67981;51.022;-2.870;2023-04-29T14:23:25;16.00;;;10.90;;
78664;SDS011;67981;51.022;-2.870;2023-04-29T14:25:50;22.02;;;13.50;;
78664;SDS011;67981;51.022;-2.870;2023-04-29T14:28:16;22.55;;;12.00;;
78664;SDS011;67981;51.022;-2.870;2023-04-29T14:30:41;17.13;;;11.52;;
78664;SDS011;67981;51.022;-2.870;2023-04-29T14:33:07;20.70;;;12.38;;
78664;SDS011;67981;51.022;-2.870;2023-04-29T14:35:33;20.02;;;12.25;;
78664;SDS011;67981;51.022;-2.870;2023-04-29T14:37:58;19.67;;;12.65;;
78664;SDS011;67981;51.022;-2.870;2023-04-29T14:40:24;21.38;;;13.20;;
78664;SDS011;67981;51.022;-2.870;2023-04-29T14:42:49;17.65;;;10.68;;